Maryland Heights, Missouri
Current Conditions -  °F | °C
As of 9:51 AM on Wednesday 28 Jan 2015 (Local Time) from KSTL Reporting Station
Few Clouds Few Clouds  
Wind Chill: -3°   Ceiling: Unl
Heat Index:   Visibility: 10mi
Dew Point: -3°   Wind: 17mph
Humidity: 67%   Direction: 150°SSE
Pressure: 30.22"   Gusts: 25mph
Location:  38.72°N, 90.44°W
Report Text: KSTL 281551Z 15015G22KT 10SM FEW250 03/M03 A3022 RMK AO2 SLP244 T00281028
Loading
Personal Weather Stations






























Interactive Weather Map New forecast layout! Learn more

10-Day Weather Forecast

Advertisements
Track Severe Weather on mobile